createdAt,value
2022-11-10T00:02:20.787Z,98668.34
2022-11-10T00:05:06.311Z,98666.25
2022-11-10T00:07:51.917Z,98675.66
2022-11-10T00:10:57.038Z,98680.63
2022-11-10T00:14:01.240Z,98684.25
2022-11-10T00:17:01.437Z,98680.91
2022-11-10T00:19:47.182Z,98674.13
2022-11-10T00:22:34.317Z,98675.69
2022-11-10T00:25:19.920Z,98670.72
2022-11-10T00:28:05.267Z,98666.50
2022-11-10T00:30:50.631Z,98679.53
2022-11-10T00:33:37.935Z,98677.34
2022-11-10T00:36:23.932Z,98686.88
2022-11-10T00:39:10.157Z,98690.47
2022-11-10T00:41:57.824Z,98689.66
2022-11-10T00:44:43.054Z,98697.41
2022-11-10T00:47:28.469Z,98674.09
2022-11-10T00:50:13.983Z,98688.03
2022-11-10T00:52:59.195Z,98693.28
2022-11-10T00:55:44.706Z,98695.78
2022-11-10T00:58:29.914Z,98690.66
2022-11-10T01:01:17.157Z,98696.75
2022-11-10T01:04:03.095Z,98694.19
2022-11-10T01:06:48.977Z,98702.78
2022-11-10T01:09:34.183Z,98701.09
2022-11-10T01:12:19.512Z,98683.22
2022-11-10T01:15:05.792Z,98682.28
2022-11-10T01:17:53.424Z,98703.59
2022-11-10T01:20:38.897Z,98712.19
2022-11-10T01:23:24.642Z,98701.09
2022-11-10T01:26:11.102Z,98706.13
2022-11-10T01:28:57.113Z,98704.63
2022-11-10T01:31:42.421Z,98710.66
2022-11-10T01:34:27.628Z,98714.16
2022-11-10T01:37:12.941Z,98712.50
2022-11-10T01:39:58.389Z,98717.03
2022-11-10T01:42:58.144Z,98722.28
2022-11-10T01:45:53.782Z,98715.81
2022-11-10T01:48:44.943Z,98736.28
2022-11-10T01:51:37.818Z,98747.03
2022-11-10T01:54:27.381Z,98739.91
2022-11-10T01:57:15.007Z,98743.53
2022-11-10T02:00:01.583Z,98749.38
2022-11-10T02:02:52.760Z,98749.81
2022-11-10T02:05:37.819Z,98748.03
2022-11-10T02:08:25.626Z,98753.47
2022-11-10T02:11:11.677Z,98750.16
2022-11-10T02:13:57.490Z,98752.97
2022-11-10T02:16:43.317Z,98755.75
2022-11-10T02:19:28.741Z,98756.81
2022-11-10T02:22:14.149Z,98758.50
2022-11-10T02:24:59.686Z,98765.41
2022-11-10T02:27:45.287Z,98766.25
2022-11-10T02:30:30.790Z,98770.66
2022-11-10T02:33:19.636Z,98765.53
2022-11-10T02:36:05.629Z,98774.06
2022-11-10T02:38:50.761Z,98781.94
2022-11-10T02:41:36.064Z,98786.16
2022-11-10T02:44:21.760Z,98792.50
2022-11-10T02:47:07.990Z,98810.97
2022-11-10T02:49:53.398Z,98815.34
2022-11-10T02:52:38.777Z,98817.03
2022-11-10T02:55:24.000Z,98809.19
2022-11-10T02:58:09.421Z,98805.81
2022-11-10T03:00:54.807Z,98819.56
2022-11-10T03:03:39.981Z,98818.84
2022-11-10T03:06:25.414Z,98821.63
2022-11-10T03:09:10.718Z,98824.06
2022-11-10T03:11:56.030Z,98827.56
2022-11-10T03:14:41.372Z,98822.50
2022-11-10T03:17:26.686Z,98831.28
2022-11-10T03:20:11.857Z,98837.50
2022-11-10T03:23:02.663Z,98828.03
2022-11-10T03:25:48.371Z,98838.34
2022-11-10T03:28:34.153Z,98841.84
2022-11-10T03:31:19.456Z,98838.41
2022-11-10T03:34:04.805Z,98837.72
2022-11-10T03:36:50.203Z,98841.47
2022-11-10T03:39:35.553Z,98853.81
2022-11-10T03:42:20.942Z,98849.31
2022-11-10T03:45:06.878Z,98850.22
2022-11-10T03:47:52.102Z,98853.00
2022-11-10T03:50:37.369Z,98861.84
2022-11-10T03:53:23.088Z,98867.22
2022-11-10T03:56:08.941Z,98850.81
2022-11-10T03:58:54.283Z,98864.50
2022-11-10T04:01:39.728Z,98860.22
2022-11-10T04:04:43.600Z,98838.97
2022-11-10T04:07:47.407Z,98865.53
2022-11-10T04:10:35.862Z,98862.94
2022-11-10T04:13:39.989Z,98852.06
2022-11-10T04:16:25.146Z,98852.06
2022-11-10T04:19:10.433Z,98863.91
2022-11-10T04:21:56.027Z,98855.44
2022-11-10T04:24:41.113Z,98871.91
2022-11-10T04:27:26.527Z,98869.84
2022-11-10T04:30:11.954Z,98874.22
2022-11-10T04:32:57.425Z,98866.66
2022-11-10T04:35:42.799Z,98876.06
2022-11-10T04:38:28.353Z,98883.03
2022-11-10T04:41:14.217Z,98881.38
2022-11-10T04:44:00.582Z,98887.41
2022-11-10T04:46:45.937Z,98910.75
2022-11-10T04:49:31.439Z,98920.28
2022-11-10T04:52:16.948Z,98909.25
2022-11-10T04:55:02.427Z,98911.34
2022-11-10T04:57:47.706Z,98906.06
2022-11-10T05:00:33.851Z,98886.41
2022-11-10T05:03:19.469Z,98922.31
2022-11-10T05:06:05.780Z,98917.91
2022-11-10T05:08:51.858Z,98916.44
2022-11-10T05:11:37.138Z,98917.31
2022-11-10T05:14:22.405Z,98940.72
2022-11-10T05:17:07.673Z,98945.00
2022-11-10T05:19:53.310Z,98950.31
2022-11-10T05:22:38.560Z,98943.94
2022-11-10T05:25:23.829Z,98937.75
2022-11-10T05:28:11.700Z,98942.81
2022-11-10T05:30:57.089Z,98944.56
2022-11-10T05:33:42.330Z,98937.75
2022-11-10T05:36:27.700Z,98962.22
2022-11-10T05:39:12.999Z,98968.50
2022-11-10T05:41:58.682Z,98960.69
2022-11-10T05:44:44.328Z,98947.34
2022-11-10T05:47:29.619Z,98961.16
2022-11-10T05:50:15.872Z,98965.44
2022-11-10T05:53:01.444Z,98961.97
2022-11-10T05:55:46.900Z,98959.69
2022-11-10T05:58:32.085Z,98960.53
2022-11-10T06:01:17.654Z,98952.97
2022-11-10T06:04:03.318Z,98971.88
2022-11-10T06:06:48.684Z,98973.69
2022-11-10T06:09:35.565Z,98984.16
2022-11-10T06:12:21.748Z,98989.50
2022-11-10T06:15:08.214Z,99005.03
2022-11-10T06:17:53.687Z,99013.47
2022-11-10T06:20:38.773Z,99014.28
2022-11-10T06:23:24.336Z,99016.81
2022-11-10T06:26:10.073Z,99034.22
2022-11-10T06:28:55.518Z,99038.38
2022-11-10T06:31:41.013Z,99040.88
2022-11-10T06:34:26.271Z,99035.03
2022-11-10T06:37:11.678Z,99053.91
2022-11-10T06:39:56.993Z,99062.59
2022-11-10T06:42:42.377Z,99055.59
2022-11-10T06:45:28.681Z,99061.69
2022-11-10T06:48:14.398Z,99061.69
2022-11-10T06:51:03.429Z,99081.78
2022-11-10T06:53:48.766Z,99085.38
2022-11-10T06:56:34.959Z,99101.22
2022-11-10T06:59:20.087Z,99092.47
2022-11-10T07:02:05.526Z,99092.88
2022-11-10T07:04:50.837Z,99093.00
2022-11-10T07:07:36.245Z,99099.06
2022-11-10T07:10:21.442Z,99107.78
2022-11-10T07:13:06.781Z,99112.00
2022-11-10T07:15:52.464Z,99123.28
2022-11-10T07:18:38.108Z,99128.34
2022-11-10T07:21:23.084Z,99116.16
2022-11-10T07:24:09.004Z,99138.50
2022-11-10T07:26:54.540Z,99137.13
2022-11-10T07:29:39.990Z,99142.78
2022-11-10T07:32:25.595Z,99144.81
2022-11-10T07:35:11.015Z,99125.47
2022-11-10T07:38:02.887Z,99145.03
2022-11-10T07:40:52.261Z,99134.88
2022-11-10T07:43:37.709Z,99147.81
2022-11-10T07:46:23.520Z,99144.09
2022-11-10T07:49:08.753Z,99156.84
2022-11-10T07:51:54.200Z,99154.84
2022-11-10T07:54:39.488Z,99155.47
2022-11-10T07:57:24.873Z,99167.31
2022-11-10T08:00:12.657Z,99168.88
2022-11-10T08:03:09.678Z,99179.06
2022-11-10T08:06:03.258Z,99174.50
2022-11-10T08:08:49.045Z,99185.03
2022-11-10T08:11:34.482Z,99185.94
2022-11-10T08:14:19.626Z,99187.72
2022-11-10T08:17:05.046Z,99183.88
2022-11-10T08:19:50.288Z,99200.34
2022-11-10T08:22:35.508Z,99200.34
2022-11-10T08:25:20.846Z,99202.00
2022-11-10T08:28:17.629Z,99209.34
2022-11-10T08:31:05.779Z,99211.97
2022-11-10T08:33:52.140Z,99214.78
2022-11-10T08:36:38.298Z,99222.13
2022-11-10T08:39:38.292Z,99215.88
2022-11-10T08:42:24.029Z,99223.84
2022-11-10T08:45:09.690Z,99228.13
2022-11-10T08:47:59.744Z,99225.13
2022-11-10T08:50:45.717Z,99231.06
2022-11-10T08:53:31.016Z,99239.31
2022-11-10T08:56:16.365Z,99237.31
2022-11-10T08:59:01.753Z,99260.16
2022-11-10T09:01:47.012Z,99258.78
2022-11-10T09:04:32.416Z,99271.53
2022-11-10T09:07:17.639Z,99273.25
2022-11-10T09:10:07.516Z,99288.19
2022-11-10T09:12:53.736Z,99290.59
2022-11-10T09:15:39.518Z,99284.50
2022-11-10T09:18:24.945Z,99300.34
2022-11-10T09:21:12.027Z,99290.53
2022-11-10T09:23:57.135Z,99304.09
2022-11-10T09:26:45.329Z,99308.47
2022-11-10T09:29:30.987Z,99319.34
2022-11-10T09:32:16.338Z,99313.59
2022-11-10T09:35:02.447Z,99319.56
2022-11-10T09:37:47.468Z,99325.13
2022-11-10T09:41:12.613Z,99335.66
2022-11-10T09:44:39.474Z,99342.66
2022-11-10T09:47:56.917Z,99349.66
2022-11-10T09:51:03.220Z,99345.88
2022-11-10T09:54:06.073Z,99351.88
2022-11-10T09:56:53.662Z,99356.13
2022-11-10T09:59:39.172Z,99345.66
2022-11-10T10:02:39.933Z,99361.03
2022-11-10T10:05:47.352Z,99365.06
2022-11-10T10:09:01.201Z,99363.06
2022-11-10T10:12:01.863Z,99363.75
2022-11-10T10:14:57.226Z,99361.19
2022-11-10T10:17:42.288Z,99364.63
2022-11-10T10:20:43.769Z,99363.69
2022-11-10T10:27:01.740Z,99363.69
2022-11-10T10:29:49.902Z,99354.75
2022-11-10T10:32:37.842Z,99362.19
2022-11-10T10:35:24.403Z,99359.13
2022-11-10T10:38:36.996Z,99357.34
2022-11-10T10:41:30.867Z,99364.44
2022-11-10T10:44:20.480Z,99365.84
2022-11-10T10:47:06.936Z,99363.97
2022-11-10T10:49:52.372Z,99363.06
2022-11-10T10:52:38.309Z,99377.88
2022-11-10T10:55:31.048Z,99380.16
2022-11-10T10:58:23.890Z,99380.63
2022-11-10T11:01:16.688Z,99389.31
2022-11-10T11:04:28.317Z,99388.13
2022-11-10T11:07:23.576Z,99397.31
2022-11-10T11:10:36.832Z,99400.63
2022-11-10T11:13:28.612Z,99397.78
2022-11-10T11:16:14.787Z,99399.13
2022-11-10T11:19:01.985Z,99401.78
2022-11-10T11:22:04.946Z,99414.78
2022-11-10T11:24:57.768Z,99420.56
2022-11-10T11:27:46.456Z,99407.78
2022-11-10T11:30:51.102Z,99420.22
2022-11-10T11:34:03.815Z,99418.91
2022-11-10T11:36:59.491Z,99422.53
2022-11-10T11:39:58.665Z,99425.81
2022-11-10T11:42:58.515Z,99423.34
2022-11-10T11:46:27.744Z,99434.25
2022-11-10T11:49:29.779Z,99428.13
2022-11-10T11:52:36.807Z,99415.59
2022-11-10T11:56:02.442Z,99421.53
2022-11-10T11:59:05.027Z,99420.16
2022-11-10T12:02:19.518Z,99434.28
2022-11-10T12:05:29.241Z,99425.38
2022-11-10T12:08:39.417Z,99438.44
2022-11-10T12:11:30.225Z,99456.06
2022-11-10T12:14:31.969Z,99455.13
2022-11-10T12:17:32.036Z,99454.28
2022-11-10T12:20:43.414Z,99457.72
2022-11-10T12:24:10.734Z,99448.72
2022-11-10T12:27:00.904Z,99441.28
2022-11-10T12:30:07.924Z,99446.13
2022-11-10T12:33:07.001Z,99442.13
2022-11-10T12:35:55.605Z,99437.56
2022-11-10T12:38:48.990Z,99443.28
2022-11-10T12:41:49.674Z,99450.31
2022-11-10T12:45:09.689Z,99452.81
2022-11-10T12:47:57.732Z,99462.56
2022-11-10T12:51:13.063Z,99466.69
2022-11-10T12:53:59.790Z,99466.41
2022-11-10T12:56:51.373Z,99461.00
2022-11-10T12:59:39.120Z,99472.44
2022-11-10T13:02:26.274Z,99469.56
2022-11-10T13:05:14.329Z,99469.50
2022-11-10T13:08:17.915Z,99472.09
2022-11-10T13:11:12.512Z,99479.09
2022-11-10T13:14:19.751Z,99473.59
2022-11-10T13:17:05.900Z,99477.94
2022-11-10T13:19:52.397Z,99480.53
2022-11-10T13:22:40.915Z,99492.94
2022-11-10T13:25:38.663Z,99495.13
2022-11-10T13:28:48.872Z,99499.63
2022-11-10T13:31:38.423Z,99498.56
2022-11-10T13:34:37.634Z,99499.44
2022-11-10T13:37:35.041Z,99509.34
2022-11-10T13:40:20.368Z,99506.78
2022-11-10T13:43:25.314Z,99502.41
2022-11-10T13:46:10.429Z,99499.06
2022-11-10T13:49:15.463Z,99505.19
2022-11-10T13:52:07.607Z,99506.84
2022-11-10T13:55:19.061Z,99497.78
2022-11-10T13:58:09.570Z,99501.94
2022-11-10T14:01:17.066Z,99508.06
2022-11-10T14:04:03.692Z,99509.16
2022-11-10T14:06:55.085Z,99504.44
2022-11-10T14:09:44.665Z,99516.09
2022-11-10T14:12:50.901Z,99506.22
2022-11-10T14:15:43.339Z,99518.22
2022-11-10T14:18:39.757Z,99512.84
2022-11-10T14:21:36.985Z,99520.75
2022-11-10T14:24:28.776Z,99526.28
2022-11-10T14:27:18.569Z,99516.50
2022-11-10T14:30:14.887Z,99513.72
2022-11-10T14:33:04.298Z,99504.66
2022-11-10T14:35:56.313Z,99507.88
2022-11-10T14:38:44.770Z,99533.59
2022-11-10T14:41:30.073Z,99538.41
2022-11-10T14:44:23.456Z,99557.13
2022-11-10T14:47:28.284Z,99545.09
2022-11-10T14:50:13.517Z,99552.16
2022-11-10T14:53:03.085Z,99553.97
2022-11-10T14:55:54.648Z,99551.94
2022-11-10T14:58:42.520Z,99560.63
2022-11-10T15:01:34.669Z,99555.38
2022-11-10T15:04:22.836Z,99555.47
2022-11-10T15:07:09.290Z,99559.09
2022-11-10T15:10:13.584Z,99555.66
2022-11-10T15:13:06.790Z,99543.25
2022-11-10T15:15:53.929Z,99552.03
2022-11-10T15:18:39.616Z,99550.09
2022-11-10T15:21:34.218Z,99544.78
2022-11-10T15:24:21.160Z,99543.97
2022-11-10T15:27:30.570Z,99552.84
2022-11-10T15:30:23.484Z,99560.94
2022-11-10T15:33:10.401Z,99559.34
2022-11-10T15:36:12.545Z,99559.69
2022-11-10T15:39:23.422Z,99572.88
2022-11-10T15:42:24.217Z,99572.56
2022-11-10T15:45:09.848Z,99575.53
2022-11-10T15:47:56.204Z,99577.09
2022-11-10T15:50:48.091Z,99576.91
2022-11-10T15:53:38.654Z,99587.97
2022-11-10T15:56:25.328Z,99589.13
2022-11-10T15:59:11.275Z,99581.50
2022-11-10T16:01:57.284Z,99588.19
2022-11-10T16:04:42.708Z,99596.91
2022-11-10T16:07:28.008Z,99606.84
2022-11-10T16:10:13.360Z,99606.22
2022-11-10T16:12:58.632Z,99603.00
2022-11-10T16:15:45.628Z,99607.66
2022-11-10T16:18:31.289Z,99606.16
2022-11-10T16:21:19.437Z,99618.94
2022-11-10T16:24:04.867Z,99621.19
2022-11-10T16:26:50.417Z,99618.69
2022-11-10T16:29:36.545Z,99612.00
2022-11-10T16:32:22.175Z,99626.06
2022-11-10T16:35:13.216Z,99627.03
2022-11-10T16:37:58.184Z,99639.56
2022-11-10T16:40:43.666Z,99655.16
2022-11-10T16:43:30.702Z,99660.81
2022-11-10T16:46:19.080Z,99651.34
2022-11-10T16:49:06.832Z,99653.25
2022-11-10T16:51:52.271Z,99656.78
2022-11-10T16:54:37.540Z,99656.00
2022-11-10T16:57:23.009Z,99648.38
2022-11-10T17:00:09.255Z,99655.28
2022-11-10T17:03:04.629Z,99672.94
2022-11-10T17:05:50.025Z,99677.00
2022-11-10T17:08:35.941Z,99683.72
2022-11-10T17:11:22.164Z,99679.69
2022-11-10T17:14:10.818Z,99681.22
2022-11-10T17:16:58.481Z,99679.97
2022-11-10T17:19:43.868Z,99689.31
2022-11-10T17:22:33.558Z,99689.97
2022-11-10T17:25:29.965Z,99689.97
2022-11-10T17:28:17.266Z,99695.22
2022-11-10T17:31:03.488Z,99713.91
2022-11-10T17:33:49.483Z,99707.19
2022-11-10T17:36:35.338Z,99710.72
2022-11-10T17:39:20.698Z,99716.78
2022-11-10T17:42:06.209Z,99699.63
2022-11-10T17:44:51.300Z,99735.41
2022-11-10T17:47:36.873Z,99735.34
2022-11-10T17:50:23.805Z,99719.72
2022-11-10T17:53:21.406Z,99744.31
2022-11-10T17:56:07.066Z,99762.66
2022-11-10T17:58:54.517Z,99760.91
2022-11-10T18:01:39.780Z,99768.81
2022-11-10T18:04:26.438Z,99766.19
2022-11-10T18:07:11.633Z,99766.16
2022-11-10T18:09:56.770Z,99772.28
2022-11-10T18:12:42.166Z,99776.66
2022-11-10T18:15:27.403Z,99782.78
2022-11-10T18:18:14.372Z,99780.97
2022-11-10T18:20:59.481Z,99783.69
2022-11-10T18:23:44.846Z,99779.31
2022-11-10T18:26:30.302Z,99788.97
2022-11-10T18:29:15.489Z,99796.84
2022-11-10T18:32:00.777Z,99797.16
2022-11-10T18:34:46.330Z,99806.09
2022-11-10T18:37:33.796Z,99806.28
2022-11-10T18:40:22.033Z,99810.88
2022-11-10T18:43:07.918Z,99809.09
2022-11-10T18:45:54.894Z,99816.00
2022-11-10T18:48:41.223Z,99817.59
2022-11-10T18:51:26.551Z,99809.69
2022-11-10T18:54:12.873Z,99822.91
2022-11-10T18:56:58.378Z,99807.34
2022-11-10T18:59:43.778Z,99817.03
2022-11-10T19:02:29.128Z,99812.03
2022-11-10T19:05:14.894Z,99818.97
2022-11-10T19:08:00.331Z,99823.44
2022-11-10T19:10:45.732Z,99820.94
2022-11-10T19:13:31.127Z,99815.72
2022-11-10T19:16:18.744Z,99827.13
2022-11-10T19:19:04.603Z,99830.72
2022-11-10T19:21:49.777Z,99839.63
2022-11-10T19:24:53.751Z,99846.75
2022-11-10T19:27:42.084Z,99856.34
2022-11-10T19:30:27.498Z,99857.25
2022-11-10T19:33:12.785Z,99868.66
2022-11-10T19:36:11.751Z,99869.59
2022-11-10T19:38:57.632Z,99886.28
2022-11-10T19:41:42.795Z,99889.75
2022-11-10T19:44:28.074Z,99901.09
2022-11-10T19:47:13.517Z,99901.09
2022-11-10T19:49:58.861Z,99890.84
2022-11-10T19:52:44.200Z,99910.13
2022-11-10T19:55:32.026Z,99913.75
2022-11-10T19:58:18.030Z,99910.28
2022-11-10T20:01:04.223Z,99913.66
2022-11-10T20:03:49.645Z,99909.44
2022-11-10T20:06:34.908Z,99911.22
2022-11-10T20:09:20.320Z,99912.16
2022-11-10T20:12:06.104Z,99913.13
2022-11-10T20:14:51.289Z,99913.28
2022-11-10T20:17:36.605Z,99912.44
2022-11-10T20:20:22.196Z,99923.06
2022-11-10T20:23:10.561Z,99920.53
2022-11-10T20:26:03.543Z,99911.84
2022-11-10T20:28:49.768Z,99919.72
2022-11-10T20:31:37.077Z,99917.94
2022-11-10T20:34:22.956Z,99908.38
2022-11-10T20:37:08.536Z,99916.19
2022-11-10T20:39:53.714Z,99916.03
2022-11-10T20:42:42.613Z,99924.78
2022-11-10T20:45:28.871Z,99931.84
2022-11-10T20:48:14.677Z,99933.72
2022-11-10T20:51:01.130Z,99928.44
2022-11-10T20:53:47.620Z,99934.53
2022-11-10T20:56:33.398Z,99939.97
2022-11-10T20:59:19.296Z,99945.22
2022-11-10T21:02:04.814Z,99945.22
2022-11-10T21:04:50.602Z,99955.75
2022-11-10T21:07:36.628Z,99965.69
2022-11-10T21:10:22.415Z,99977.38
2022-11-10T21:13:08.398Z,99979.16
2022-11-10T21:15:59.397Z,99966.97
2022-11-10T21:18:45.095Z,99971.38
2022-11-10T21:21:36.529Z,99970.50
2022-11-10T21:24:22.400Z,99969.72
2022-11-10T21:27:11.278Z,99973.28
2022-11-10T21:29:58.359Z,99966.25
2022-11-10T21:32:43.707Z,99965.28
2022-11-10T21:35:32.836Z,99962.56
2022-11-10T21:38:20.905Z,99978.38
2022-11-10T21:41:06.590Z,99974.91
2022-11-10T21:43:52.416Z,99974.06
2022-11-10T21:46:38.391Z,99983.75
2022-11-10T21:49:23.900Z,99984.78
2022-11-10T21:52:09.789Z,99996.13
2022-11-10T21:54:55.101Z,100003.25
2022-11-10T21:57:40.421Z,100002.41
2022-11-10T22:00:26.825Z,100000.78
2022-11-10T22:03:12.114Z,100000.84
2022-11-10T22:06:04.638Z,100006.22
2022-11-10T22:08:49.925Z,100017.75
2022-11-10T22:11:53.827Z,100017.00
2022-11-10T22:14:57.771Z,100030.00
2022-11-10T22:18:02.399Z,100023.81
2022-11-10T22:20:47.729Z,100005.66
2022-11-10T22:23:52.161Z,100038.59
2022-11-10T22:26:37.416Z,100029.81
2022-11-10T22:29:30.106Z,100029.00
2022-11-10T22:32:16.602Z,100031.66
2022-11-10T22:35:01.839Z,100040.41
2022-11-10T22:37:47.237Z,100032.50
2022-11-10T22:40:52.046Z,100027.19
2022-11-10T22:43:55.850Z,100035.00
2022-11-10T22:46:46.074Z,100038.53
2022-11-10T22:49:31.691Z,100045.50
2022-11-10T22:52:16.905Z,100044.56
2022-11-10T22:55:02.244Z,100042.75
2022-11-10T22:57:47.617Z,100046.22
2022-11-10T23:00:32.789Z,100057.44
2022-11-10T23:03:18.018Z,100046.06
2022-11-10T23:06:04.104Z,100042.06
2022-11-10T23:08:49.208Z,100039.53
2022-11-10T23:11:34.695Z,100039.59
2022-11-10T23:14:19.914Z,100046.66
2022-11-10T23:17:05.336Z,100046.66
2022-11-10T23:19:50.583Z,100037.94
2022-11-10T23:22:35.964Z,100029.31
2022-11-10T23:25:21.353Z,100034.44
2022-11-10T23:28:06.677Z,100040.59
2022-11-10T23:30:52.080Z,100038.78
2022-11-10T23:33:39.159Z,100033.66
2022-11-10T23:36:26.072Z,100053.66
2022-11-10T23:39:13.173Z,100052.81
2022-11-10T23:41:58.472Z,100046.75
2022-11-10T23:44:43.838Z,100052.06
2022-11-10T23:47:29.325Z,100052.91
2022-11-10T23:50:14.646Z,100046.81
2022-11-10T23:52:59.861Z,100046.81
2022-11-10T23:55:45.452Z,100037.22
2022-11-10T23:58:30.623Z,100032.97
